Thunder radar more information blitzortung!


Löydät sääaseman tiedot myös:

European Weather Network

Finland Weather Exchange

Weather Underground

AWEKAS



Weather Underground säähistoriasivu

Päivittäin yhteenveto Elokuu 19, 2018 Yksiköt:  Metriset    Englantilaiset   Molemmat
« Edellinen Päivä
Seuraava Päivä »
Päivittäin Viikoittain Kuukausittain Vuosittain Mukautettu
  Tämänhetkinen: Korkea: Matala: Keskiarvo:
Lämpötila: -7.6 °C -17.8 °C -9.8 °C -8.6 °C
Kastepiste: -12.9 °C -17.8 °C -13.1 °C -11 °C
Kosteus: 54 % Humidity % 51 % 77 %
Tuulen nopeus: 7.7 km/h 0 km/h 2.6 km/h 8.4 km/h
Tuulenpuuska: 31.1 km/h 0 km/h - -
Tuuli:West - - SW
Ilmanpaine: 34080.1 hPa 0 hPa 33917.6 hPa -
Sade: 96.52 mm      
Historical Graphs
 
 
Taulukkotiedot Elokuu 19, 2018
Aika Lämpötila Kastepiste Ilmanpaine Tuuli Tuulen nopeus Tuulenpuuska Kosteus Sademäärä (tunneittain)
-17.8 °C -17.8 °C 0 hPa Calm     Humidity % 0 mm
00:00 -8.4 °C -10.8 °C 33998.8 hPa SSW 10.3 km/h 33.6 km/h 76 % 0 mm
00:15 -8.7 °C -10.7 °C 33995.4 hPa SSW 15.6 km/h 33.6 km/h 80 % 0 mm
00:30 -8.9 °C -10.7 °C 33988.7 hPa SSW 12.9 km/h 36.2 km/h 82 % 0 mm
00:45 -9.1 °C -10.7 °C 33985.3 hPa SSW 7.7 km/h 23.3 km/h 83 % 0 mm
01:00 -9.2 °C -10.6 °C 33971.7 hPa South 7.7 km/h 23.3 km/h 85 % 0 mm
01:15 -9.2 °C -10.5 °C 33971.7 hPa SSW 10.3 km/h 36.2 km/h 86 % 7.62 mm
01:30 -9.5 °C -10.4 °C 33961.6 hPa SSW 15.6 km/h 36.2 km/h 90 % 12.7 mm
01:45 -9.7 °C -10.4 °C 33951.4 hPa SSW 10.3 km/h 49.2 km/h 92 % 20.32 mm
02:00 -9.7 °C -10.3 °C 33944.7 hPa South 12.9 km/h 41.4 km/h 93 % 33.02 mm
02:15 -9.8 °C -10.3 °C 33937.9 hPa SSW 10.3 km/h 44.1 km/h 94 % 38.1 mm
02:30 -9.8 °C -10.3 °C 33934.5 hPa SSW 15.6 km/h 31.1 km/h 94 % 38.1 mm
02:45 -9.7 °C -10.2 °C 33927.7 hPa SSW 10.3 km/h 33.6 km/h 95 % 38.1 mm
03:00 -9.7 °C -10.1 °C 33927.7 hPa SSW 15.6 km/h 28.5 km/h 95 % 33.02 mm
03:15 -9.6 °C -10.1 °C 33924.3 hPa South 12.9 km/h 31.1 km/h 95 % 25.4 mm
03:30 -9.6 °C -9.9 °C 33920.9 hPa SSW 10.3 km/h 28.5 km/h 96 % 20.32 mm
03:45 -9.6 °C -9.9 °C 33920.9 hPa SSW 10.3 km/h 31.1 km/h 96 % 12.7 mm
04:00 -9.5 °C -9.9 °C 33917.6 hPa SSW 10.3 km/h 31.1 km/h 95 % 12.7 mm
04:15 -9.4 °C -9.8 °C 33920.9 hPa SSW 5.1 km/h 20.8 km/h 95 % 7.62 mm
04:30 -9.3 °C -9.8 °C 33917.6 hPa SSW 12.9 km/h 28.5 km/h 95 % 12.7 mm
04:45 -9.4 °C -9.8 °C 33920.9 hPa SSW 10.3 km/h 23.3 km/h 95 % 20.32 mm
05:00 -9.4 °C -9.9 °C 33920.9 hPa SSW 12.9 km/h 31.1 km/h 95 % 25.4 mm
05:15 -9.5 °C -9.9 °C 33927.7 hPa SSW 7.7 km/h 28.5 km/h 95 % 25.4 mm
05:30 -9.5 °C -9.9 °C 33931.1 hPa SSW 10.3 km/h 28.5 km/h 95 % 12.7 mm
05:45 -9.6 °C -10 °C 33934.5 hPa SW 7.7 km/h 18.2 km/h 95 % 7.62 mm
06:00 -9.6 °C -10.1 °C 33937.9 hPa SSW 5.1 km/h 20.8 km/h 94 % 0 mm
06:15 -9.7 °C -10.2 °C 33937.9 hPa SSW 5.1 km/h 18.2 km/h 94 % 0 mm
06:30 -9.7 °C -10.2 °C 33941.3 hPa SSW 7.7 km/h 20.8 km/h 94 % 0 mm
06:45 -9.7 °C -10.1 °C 33944.7 hPa SW 2.6 km/h 15.6 km/h 95 % 0 mm
07:00 -9.7 °C -10.1 °C 33948 hPa SSW 5.1 km/h 18.2 km/h 95 % 0 mm
07:15 -9.8 °C -10.2 °C 33951.4 hPa SSW 5.1 km/h 12.9 km/h 95 % 0 mm
07:30 -9.7 °C -10.1 °C 33954.8 hPa SSW 7.7 km/h 23.3 km/h 95 % 0 mm
07:45 -9.6 °C -10.2 °C 33958.2 hPa SSW 5.1 km/h 18.2 km/h 94 % 0 mm
08:00 -9.6 °C -10.1 °C 33958.2 hPa SSW 7.7 km/h 20.8 km/h 94 % 0 mm
08:15 -9.5 °C -10.1 °C 33961.6 hPa SW 5.1 km/h 18.2 km/h 93 % 0 mm
08:30 -9.4 °C -10.2 °C 33965 hPa SSW 7.7 km/h 23.3 km/h 92 % 0 mm
08:45 -9.3 °C -10 °C 33965 hPa SSW 5.1 km/h 28.5 km/h 92 % 0 mm
09:00 -9.2 °C -10.1 °C 33971.7 hPa WSW 5.1 km/h 25.9 km/h 90 % 0 mm
09:15 -9.1 °C -10.2 °C 33975.1 hPa SSW 5.1 km/h 20.8 km/h 88 % 0 mm
09:30 -9 °C -10.3 °C 33978.5 hPa SSW 10.3 km/h 25.9 km/h 86 % 0 mm
09:45 -8.7 °C -10.2 °C 33981.9 hPa SSW 7.7 km/h 25.9 km/h 84 % 0 mm
10:00 -8.5 °C -10.1 °C 33988.7 hPa SW 5.1 km/h 23.3 km/h 83 % 0 mm
10:15 -8.5 °C -10.4 °C 33985.3 hPa SSW 7.7 km/h 23.3 km/h 80 % 0 mm
10:30 -8.2 °C -10.3 °C 33988.7 hPa SW 5.1 km/h 23.3 km/h 79 % 0 mm
10:45 -7.9 °C -10.2 °C 33992.1 hPa WSW 5.1 km/h 15.6 km/h 77 % 0 mm
11:00 -7.8 °C -10.7 °C 33992.1 hPa SSW 7.7 km/h 25.9 km/h 72 % 0 mm
11:15 -7.8 °C -10.7 °C 33992.1 hPa SSW 10.3 km/h 25.9 km/h 72 % 0 mm
11:30 -7.6 °C -10.5 °C 33995.4 hPa SSW 7.7 km/h 23.3 km/h 72 % 0 mm
11:45 -7.7 °C -11.2 °C 33998.8 hPa West 2.6 km/h 18.2 km/h 67 % 0 mm
12:00 -7.6 °C -10.9 °C 34002.2 hPa SSW 5.1 km/h 20.8 km/h 68 % 0 mm
12:15 -7.2 °C -11.2 °C 33998.8 hPa SW 7.7 km/h 20.8 km/h 63 % 0 mm
12:30 -7.4 °C -11.7 °C 34005.6 hPa West 5.1 km/h 15.6 km/h 61 % 0 mm
12:45 -7.8 °C -11.7 °C 34005.6 hPa SW 2.6 km/h 10.3 km/h 64 % 0 mm
13:00 -7.3 °C -11.6 °C 34005.6 hPa WNW 5.1 km/h 18.2 km/h 61 % 0 mm
13:15 -7.3 °C -11.6 °C 34009 hPa West 5.1 km/h 18.2 km/h 61 % 0 mm
13:30 -7.5 °C -11.5 °C 34009 hPa WNW 2.6 km/h 20.8 km/h 63 % 0 mm
13:45 -7.1 °C -11.6 °C 34012.4 hPa West 5.1 km/h 18.2 km/h 59 % 0 mm
14:00 -7.1 °C -11.2 °C 34019.1 hPa SSW 5.1 km/h 20.8 km/h 62 % 0 mm
14:15 -6.7 °C -11.6 °C 34022.5 hPa SW 7.7 km/h 23.3 km/h 57 % 0 mm
14:30 -6.7 °C -11.9 °C 34022.5 hPa SSW 10.3 km/h 28.5 km/h 55 % 0 mm
14:45 -6.6 °C -11.9 °C 34022.5 hPa SW 7.7 km/h 25.9 km/h 54 % 0 mm
15:00 -6.5 °C -12 °C 34025.9 hPa WSW 10.3 km/h 25.9 km/h 53 % 0 mm
15:15 -7.1 °C -12.4 °C 34032.7 hPa SW 10.3 km/h 28.5 km/h 54 % 0 mm
15:30 -6.8 °C -12.6 °C 34036.1 hPa SSW 10.3 km/h 38.8 km/h 51 % 0 mm
15:45 -6.9 °C -12.4 °C 34046.2 hPa West 10.3 km/h 38.8 km/h 53 % 0 mm
16:00 -7.2 °C -12.4 °C 34053 hPa SW 10.3 km/h 28.5 km/h 54 % 0 mm
16:15 -7.2 °C -12.8 °C 34059.8 hPa West 10.3 km/h 28.5 km/h 52 % 0 mm
16:30 -7.3 °C -12.8 °C 34066.5 hPa SW 10.3 km/h 38.8 km/h 53 % 0 mm
16:45 -7.3 °C -12.9 °C 34073.3 hPa West 10.3 km/h 38.8 km/h 52 % 0 mm
17:00 -7.4 °C -12.7 °C 34073.3 hPa WNW 10.3 km/h 33.6 km/h 54 % 0 mm
17:15 -7.5 °C -12.8 °C 34073.3 hPa SW 10.3 km/h 23.3 km/h 54 % 0 mm
17:30 -7.3 °C -12.9 °C 34076.7 hPa SW 7.7 km/h 20.8 km/h 52 % 0 mm
17:45 -7.3 °C -12.9 °C 34076.7 hPa West 10.3 km/h 28.5 km/h 52 % 0 mm
18:00 -7.4 °C -13.1 °C 34083.5 hPa WSW 10.3 km/h 38.8 km/h 52 % 0 mm
18:15 -7.6 °C -12.9 °C 34080.1 hPa West 7.7 km/h 31.1 km/h 54 % 0 mm
Esan sääasema
Terveisin Weather Underground - 2.75 mb

Alkuperäinen skripti  Jim McMurry - jmcmurry@mwt.net Sovitettu myös templatelle  Wim van der Kuil - Leuven-Template.eu

Laitteet joita käytämme:

Sääasema
Davis VP2

Sääasemaohjelma
Cumulus

Sääaseman tietokone
Asus EeePC

Palveluntarjoaja
Suncomet

Davis VP2

Cumulus

Asus EeePC

Suncomet